| time (UTC) | temp F | wind direction | speed MPH | gust MPH | rain 1hr in | rain 24hr in | rain mn in | humidity % | barometer mb |
| 20260510084548 | 50 | 304 | 0.0 | 0.0 | 0.00 | 0.34 | 0.05 | 96 | 1008.5 |
| 20260510083048 | 50 | 306 | 0.0 | 0.0 | 0.00 | 0.34 | 0.05 | 96 | 1008.8 |
| 20260510081555 | 51 | 304 | 0.0 | 0.0 | 0.00 | 0.34 | 0.05 | 96 | 1008.6 |
| 20260510080048 | 51 | 307 | 0.0 | 1.0 | 0.00 | 0.34 | 0.05 | 96 | 1008.6 |
| 20260510074545 | 51 | 212 | 0.0 | 2.0 | 0.01 | 0.34 | 0.05 | 96 | 1008.0 |
| 20260510073044 | 51 | 210 | 0.0 | 0.0 | 0.01 | 0.34 | 0.05 | 96 | 1008.5 |
| 20260510071542 | 51 | 210 | 0.0 | 1.0 | 0.01 | 0.34 | 0.05 | 96 | 1009.1 |
| 20260510070046 | 52 | 255 | 0.0 | 3.0 | 0.05 | 0.34 | 0.05 | 96 | 1009.3 |
| 20260510064540 | 52 | 178 | 0.0 | 5.0 | 0.04 | 0.33 | 0.04 | 96 | 1009.3 |
| 20260510063040 | 52 | 139 | 1.0 | 4.0 | 0.04 | 0.33 | 0.04 | 96 | 1009.4 |
| 20260510061538 | 52 | 268 | 0.0 | 1.0 | 0.04 | 0.33 | 0.04 | 96 | 1009.3 |
| 20260510060036 | 52 | 107 | 0.0 | 5.0 | 0.00 | 0.28 | 0.00 | 96 | 1009.1 |
| 20260510054542 | 51 | 179 | 0.0 | 6.0 | 0.00 | 0.28 | 0.00 | 96 | 1009.2 |
| 20260510053034 | 51 | 231 | 0.0 | 4.0 | 0.00 | 0.28 | 0.00 | 96 | 1008.9 |
| 20260510051535 | 51 | 203 | 0.0 | 3.0 | 0.00 | 0.28 | 0.00 | 96 | 1008.7 |
| 20260510050038 | 51 | 211 | 0.0 | 2.0 | 0.00 | 0.28 | 0.00 | 96 | 1008.7 |
| 20260510044536 | 51 | 257 | 0.0 | 1.0 | 0.00 | 0.28 | 0.00 | 96 | 1008.9 |
| 20260510043030 | 51 | 205 | 0.0 | 4.0 | 0.00 | 0.28 | 0.00 | 97 | 1008.9 |
| 20260510041530 | 51 | 67 | 0.0 | 0.0 | 0.00 | 0.28 | 0.00 | 96 | 1008.9 |
| 20260510040026 | 51 | 67 | 0.0 | 0.0 | 0.00 | 0.28 | 0.00 | 96 | 1008.9 |
| 20260510034525 | 51 | 67 | 0.0 | 0.0 | 0.00 | 0.28 | 0.28 | 96 | 1008.9 |
| 20260510033024 | 51 | 68 | 0.0 | 2.0 | 0.00 | 0.28 | 0.28 | 96 | 1008.7 |
| 20260510031535 | 51 | 314 | 0.0 | 1.0 | 0.00 | 0.28 | 0.28 | 97 | 1008.7 |
| 20260510030030 | 51 | 313 | 0.0 | 0.0 | 0.00 | 0.28 | 0.28 | 96 | 1009.0 |
| 20260510024522 | 50 | 312 | 0.0 | 0.0 | 0.00 | 0.28 | 0.28 | 96 | 1009.0 |
| 20260510023022 | 50 | 312 | 0.0 | 0.0 | 0.00 | 0.28 | 0.28 | 96 | 1009.1 |
| 20260510021529 | 50 | 312 | 0.0 | 0.0 | 0.00 | 0.28 | 0.28 | 96 | 1009.0 |
| 20260510020021 | 50 | 312 | 0.0 | 0.0 | 0.00 | 0.28 | 0.28 | 96 | 1009.0 |
| 20260510014520 | 50 | 312 | 0.0 | 0.0 | 0.00 | 0.28 | 0.28 | 96 | 1009.0 |
| 20260510013019 | 50 | 312 | 0.0 | 0.0 | 0.00 | 0.28 | 0.28 | 96 | 1009.1 |
| 20260510011519 | 50 | 312 | 0.0 | 0.0 | 0.00 | 0.28 | 0.28 | 96 | 1008.9 |
| 20260510010019 | 51 | 312 | 0.0 | 0.0 | 0.00 | 0.28 | 0.28 | 96 | 1009.1 |
| 20260510004518 | 51 | 312 | 0.0 | 0.0 | 0.00 | 0.28 | 0.28 | 96 | 1008.9 |
| 20260510003018 | 51 | 312 | 0.0 | 0.0 | 0.00 | 0.28 | 0.28 | 96 | 1008.9 |
| 20260510001516 | 51 | 312 | 0.0 | 0.0 | 0.00 | 0.28 | 0.28 | 96 | 1008.7 |
| 20260510000020 | 51 | 312 | 0.0 | 0.0 | 0.00 | 0.28 | 0.28 | 95 | 1008.3 |
| 20260509234516 | 51 | 312 | 0.0 | 0.0 | 0.00 | 0.28 | 0.28 | 95 | 1008.4 |
| 20260509233015 | 51 | 312 | 0.0 | 0.0 | 0.00 | 0.28 | 0.28 | 96 | 1008.3 |
| 20260509231512 | 51 | 312 | 0.0 | 0.0 | 0.00 | 0.28 | 0.28 | 96 | 1008.1 |
| 20260509230011 | 51 | 312 | 0.0 | 0.0 | 0.00 | 0.28 | 0.28 | 96 | 1008.0 |
| 20260509224509 | 51 | 312 | 0.0 | 0.0 | 0.00 | 0.28 | 0.28 | 96 | 1008.2 |
| 20260509223015 | 50 | 312 | 0.0 | 0.0 | 0.00 | 0.28 | 0.28 | 95 | 1008.1 |
| 20260509221506 | 50 | 312 | 0.0 | 0.0 | 0.00 | 0.28 | 0.28 | 96 | 1008.2 |
| 20260509220006 | 50 | 312 | 0.0 | 0.0 | 0.01 | 0.28 | 0.28 | 96 | 1008.4 |
| 20260509214500 | 50 | 312 | 0.0 | 0.0 | 0.01 | 0.28 | 0.28 | 95 | 1008.6 |
| 20260509213100 | 50 | 312 | 0.0 | 1.0 | 0.01 | 0.28 | 0.28 | 95 | 1008.7 |
| 20260509211601 | 50 | 311 | 0.0 | 0.0 | 0.02 | 0.28 | 0.28 | 95 | 1008.8 |
| 20260509210105 | 50 | 311 | 0.0 | 0.0 | 0.01 | 0.28 | 0.28 | 95 | 1008.8 |
| 20260509204551 | 50 | 311 | 0.0 | 0.0 | 0.01 | 0.28 | 0.28 | 95 | 1009.0 |
| 20260509203051 | 50 | 53 | 0.0 | 0.0 | 0.01 | 0.28 | 0.28 | 95 | 1009.1 |
| 20260509201546 | 49 | 53 | 0.0 | 0.0 | 0.00 | 0.28 | 0.27 | 94 | 1009.4 |
| 20260509200048 | 49 | 54 | 0.0 | 0.0 | 0.00 | 0.28 | 0.27 | 94 | 1009.6 |
| 20260509194537 | 49 | 54 | 0.0 | 0.0 | 0.00 | 0.30 | 0.27 | 94 | 1009.7 |
| 20260509193034 | 49 | 54 | 0.0 | 0.0 | 0.00 | 0.30 | 0.27 | 94 | 1009.8 |
| 20260509191535 | 49 | 54 | 0.0 | 0.0 | 0.01 | 0.30 | 0.27 | 93 | 1009.8 |
| 20260509190039 | 49 | 55 | 0.0 | 0.0 | 0.02 | 0.30 | 0.27 | 94 | 1010.0 |
| 20260509184536 | 49 | 55 | 0.0 | 0.0 | 0.03 | 0.30 | 0.27 | 94 | 1010.0 |
| 20260509183028 | 48 | 55 | 0.0 | 0.0 | 0.04 | 0.30 | 0.27 | 93 | 1010.1 |
| 20260509181523 | 48 | 55 | 0.0 | 0.0 | 0.04 | 0.28 | 0.26 | 94 | 1010.2 |
| 20260509180026 | 48 | 55 | 0.0 | 0.0 | 0.03 | 0.28 | 0.25 | 93 | 1010.3 |
| 20260509174523 | 48 | 55 | 0.0 | 1.0 | 0.02 | 0.27 | 0.24 | 93 | 1010.4 |
| 20260509173050 | 48 | 56 | 0.0 | 0.0 | 0.02 | 0.26 | 0.23 | 93 | 1010.4 |
| 20260509171528 | 48 | 56 | 0.0 | 0.0 | 0.02 | 0.25 | 0.22 | 93 | 1010.5 |
| 20260509170018 | 48 | 56 | 0.0 | 0.0 | 0.03 | 0.25 | 0.22 | 93 | 1010.7 |
| 20260509164517 | 47 | 56 | 0.0 | 0.0 | 0.05 | 0.25 | 0.22 | 93 | 1010.8 |
| 20260509163016 | 46 | 56 | 0.0 | 0.0 | 0.05 | 0.24 | 0.21 | 92 | 1011.2 |
| 20260509161509 | 46 | 56 | 0.0 | 0.0 | 0.06 | 0.23 | 0.20 | 92 | 1011.4 |
| 20260509160009 | 45 | 358 | 0.0 | 0.0 | 0.07 | 0.22 | 0.19 | 93 | 1011.8 |
| 20260509154503 | 45 | 359 | 0.0 | 0.0 | 0.08 | 0.20 | 0.17 | 92 | 1011.9 |
| 20260509153005 | 45 | 359 | 0.0 | 0.0 | 0.09 | 0.19 | 0.16 | 91 | 1011.9 |
| 20260509151501 | 45 | 359 | 0.0 | 0.0 | 0.08 | 0.17 | 0.14 | 92 | 1012.1 |
| 20260509150100 | 45 | 359 | 0.0 | 0.0 | 0.07 | 0.15 | 0.12 | 91 | 1012.2 |
| 20260509144559 | 45 | 359 | 0.0 | 0.0 | 0.06 | 0.12 | 0.09 | 90 | 1012.1 |
| 20260509143107 | 45 | 359 | 0.0 | 0.0 | 0.05 | 0.10 | 0.07 | 91 | 1012.1 |
| 20260509141557 | 45 | 359 | 0.0 | 0.0 | 0.06 | 0.09 | 0.06 | 91 | 1012.1 |
| 20260509140056 | 44 | 359 | 0.0 | 0.0 | 0.05 | 0.08 | 0.05 | 91 | 1012.1 |
| 20260509134555 | 44 | 359 | 0.0 | 0.0 | 0.03 | 0.06 | 0.03 | 90 | 1012.2 |
| 20260509133055 | 44 | 359 | 0.0 | 0.0 | 0.02 | 0.05 | 0.02 | 89 | 1012.2 |
| 20260509131602 | 44 | 359 | 0.0 | 0.0 | 0.00 | 0.03 | 0.00 | 88 | 1012.2 |
| 20260509130124 | 44 | 56 | 0.0 | 0.0 | 0.00 | 0.03 | 0.00 | 88 | 1012.3 |
| 20260509124550 | 43 | 56 | 0.0 | 0.0 | 0.00 | 0.03 | 0.00 | 87 | 1012.1 |
| 20260509123116 | 43 | 56 | 0.0 | 0.0 | 0.00 | 0.03 | 0.00 | 85 | 1012.3 |
| 20260509121549 | 43 | 56 | 0.0 | 0.0 | 0.00 | 0.03 | 0.00 | 85 | 1012.3 |
| 20260509120050 | 42 | 56 | 0.0 | 0.0 | 0.00 | 0.03 | 0.00 | 84 | 1012.6 |
| 20260509114603 | 41 | 56 | 0.0 | 0.0 | 0.00 | 0.03 | 0.00 | 88 | 1012.6 |
| 20260509113039 | 40 | 37 | 0.0 | 0.0 | 0.00 | 0.03 | 0.00 | 89 | 1012.7 |
| 20260509111536 | 38 | 37 | 0.0 | 0.0 | 0.00 | 0.03 | 0.00 | 91 | 1012.5 |
| 20260509110037 | 37 | 37 | 0.0 | 0.0 | 0.00 | 0.03 | 0.00 | 92 | 1012.4 |
| 20260509104535 | 36 | 25 | 0.0 | 0.0 | 0.00 | 0.03 | 0.00 | 92 | 1012.5 |
| 20260509103034 | 35 | 273 | 0.0 | 0.0 | 0.00 | 0.03 | 0.00 | 92 | 1012.6 |
| 20260509101550 | 35 | 273 | 0.0 | 0.0 | 0.00 | 0.03 | 0.00 | 91 | 1012.6 |
| 20260509100034 | 35 | 273 | 0.0 | 0.0 | 0.00 | 0.03 | 0.00 | 91 | 1012.6 |
| 20260509094534 | 35 | 273 | 0.0 | 0.0 | 0.00 | 0.03 | 0.00 | 91 | 1012.6 |
| 20260509093032 | 34 | 273 | 0.0 | 0.0 | 0.00 | 0.03 | 0.00 | 91 | 1012.8 |
| 20260509091536 | 34 | 273 | 0.0 | 0.0 | 0.00 | 0.03 | 0.00 | 92 | 1012.6 |
| 20260509090031 | 34 | 273 | 0.0 | 0.0 | 0.00 | 0.03 | 0.00 | 92 | 1012.7 |